Terminal Aerodrome Forecast
Issued by NWS Charleston, WV

Current Version | Previous Version | Graphics & Text | Print | Product List | Glossary On
Versions: 1 2 3 4 5 6 7 8 9 10 11 12 13 14 15 16 17 18 19 20 21 22 23
511
FTUS41 KRLX 012320
TAFCRW
TAF
KCRW 012320Z 0200/0224 00000KT 6SM TSRA OVC050CB
      TEMPO 0200/0201 2SM TSRA BR SCT010 OVC025CB
     FM020100 VRB03KT P6SM VCTS OVC060CB
     FM020900 00000KT 5SM BR BKN080
     FM021200 VRB03KT 5SM BR BKN010
     FM021400 22006KT P6SM BKN015
     FM021700 23008KT P6SM BKN035
     FM022100 24008KT P6SM SHRA VCTS OVC060CB=

USA.gov is the U.S. government's official web portal to all federal, state and local government web resources and services.